sensor_id;sensor_type;location;lat;lon;timestamp;pressure;altitude;pressure_sealevel;temperature;humidity
72409;BME280;60402;48.082;11.628;2023-06-26T00:00:07;95424.84;;;17.38;76.41
72409;BME280;60402;48.082;11.628;2023-06-26T00:02:54;95399.50;;;17.17;76.47
72409;BME280;60402;48.082;11.628;2023-06-26T00:05:40;95414.09;;;17.19;76.36
72409;BME280;60402;48.082;11.628;2023-06-26T00:08:26;95411.44;;;17.15;76.58
72409;BME280;60402;48.082;11.628;2023-06-26T00:11:12;95409.69;;;16.94;78.03
72409;BME280;60402;48.082;11.628;2023-06-26T00:13:58;95397.94;;;16.53;79.83
72409;BME280;60402;48.082;11.628;2023-06-26T00:16:45;95400.91;;;16.58;80.01
72409;BME280;60402;48.082;11.628;2023-06-26T00:19:31;95422.84;;;16.76;79.34
72409;BME280;60402;48.082;11.628;2023-06-26T00:22:16;95410.44;;;16.55;80.51
72409;BME280;60402;48.082;11.628;2023-06-26T00:25:02;95409.34;;;16.29;81.44
72409;BME280;60402;48.082;11.628;2023-06-26T00:27:48;95423.06;;;16.40;81.31
72409;BME280;60402;48.082;11.628;2023-06-26T00:30:34;95398.28;;;16.22;81.34
72409;BME280;60402;48.082;11.628;2023-06-26T00:33:19;95424.19;;;16.42;80.56
72409;BME280;60402;48.082;11.628;2023-06-26T00:36:05;95428.28;;;16.41;80.39
72409;BME280;60402;48.082;11.628;2023-06-26T00:38:50;95421.00;;;16.40;80.47
72409;BME280;60402;48.082;11.628;2023-06-26T00:41:37;95416.19;;;16.22;80.99
72409;BME280;60402;48.082;11.628;2023-06-26T00:44:23;95410.41;;;16.07;81.95
72409;BME280;60402;48.082;11.628;2023-06-26T00:47:11;95408.06;;;16.06;82.43
72409;BME280;60402;48.082;11.628;2023-06-26T00:49:58;95415.06;;;15.96;83.42
72409;BME280;60402;48.082;11.628;2023-06-26T00:52:44;95424.28;;;15.91;83.47
72409;BME280;60402;48.082;11.628;2023-06-26T00:55:30;95430.28;;;15.93;83.52
72409;BME280;60402;48.082;11.628;2023-06-26T00:58:15;95430.56;;;15.95;83.74
72409;BME280;60402;48.082;11.628;2023-06-26T01:01:01;95423.56;;;15.72;84.21
72409;BME280;60402;48.082;11.628;2023-06-26T01:03:49;95433.34;;;15.71;84.46
72409;BME280;60402;48.082;11.628;2023-06-26T01:06:37;95422.81;;;15.44;85.72
72409;BME280;60402;48.082;11.628;2023-06-26T01:09:23;95428.03;;;15.45;85.59
72409;BME280;60402;48.082;11.628;2023-06-26T01:12:09;95390.44;;;15.14;86.00
72409;BME280;60402;48.082;11.628;2023-06-26T01:14:54;95413.84;;;15.18;85.95
72409;BME280;60402;48.082;11.628;2023-06-26T01:17:40;95429.66;;;15.19;86.76
72409;BME280;60402;48.082;11.628;2023-06-26T01:20:32;95429.34;;;15.26;86.46
72409;BME280;60402;48.082;11.628;2023-06-26T01:23:42;95414.00;;;15.14;85.98
72409;BME280;60402;48.082;11.628;2023-06-26T01:26:34;95427.91;;;15.30;85.73
72409;BME280;60402;48.082;11.628;2023-06-26T01:29:21;95419.03;;;15.28;85.05
72409;BME280;60402;48.082;11.628;2023-06-26T01:32:08;95430.25;;;15.32;84.60
72409;BME280;60402;48.082;11.628;2023-06-26T01:34:55;95392.47;;;15.22;84.14
72409;BME280;60402;48.082;11.628;2023-06-26T01:37:41;95411.28;;;15.29;84.48
72409;BME280;60402;48.082;11.628;2023-06-26T01:40:27;95422.19;;;15.40;84.25
72409;BME280;60402;48.082;11.628;2023-06-26T01:43:24;95423.78;;;15.22;84.33
72409;BME280;60402;48.082;11.628;2023-06-26T01:46:25;95414.16;;;15.20;84.33
72409;BME280;60402;48.082;11.628;2023-06-26T01:52:13;95425.72;;;15.07;84.90
72409;BME280;60402;48.082;11.628;2023-06-26T01:55:11;95396.47;;;14.97;84.31
72409;BME280;60402;48.082;11.628;2023-06-26T01:57:58;95386.81;;;14.95;84.38
72409;BME280;60402;48.082;11.628;2023-06-26T02:00:44;95388.91;;;14.85;84.19
72409;BME280;60402;48.082;11.628;2023-06-26T02:03:29;95419.53;;;15.08;84.18
72409;BME280;60402;48.082;11.628;2023-06-26T02:06:15;95397.28;;;14.79;85.05
72409;BME280;60402;48.082;11.628;2023-06-26T02:09:01;95414.19;;;14.92;84.90
72409;BME280;60402;48.082;11.628;2023-06-26T02:11:47;95414.00;;;14.87;84.96
72409;BME280;60402;48.082;11.628;2023-06-26T02:14:33;95396.50;;;14.70;84.94
72409;BME280;60402;48.082;11.628;2023-06-26T02:17:18;95394.28;;;14.74;84.67
72409;BME280;60402;48.082;11.628;2023-06-26T02:20:05;95405.31;;;14.72;84.75
72409;BME280;60402;48.082;11.628;2023-06-26T02:22:51;95407.06;;;14.69;84.71
72409;BME280;60402;48.082;11.628;2023-06-26T02:25:37;95407.53;;;14.77;84.86
72409;BME280;60402;48.082;11.628;2023-06-26T02:28:22;95409.78;;;14.73;84.60
72409;BME280;60402;48.082;11.628;2023-06-26T02:31:08;95415.63;;;14.78;84.43
72409;BME280;60402;48.082;11.628;2023-06-26T02:33:54;95411.16;;;14.87;84.05
72409;BME280;60402;48.082;11.628;2023-06-26T02:36:39;95411.97;;;14.87;83.81
72409;BME280;60402;48.082;11.628;2023-06-26T02:39:25;95412.44;;;14.95;82.69
72409;BME280;60402;48.082;11.628;2023-06-26T02:42:10;95412.78;;;14.88;83.55
72409;BME280;60402;48.082;11.628;2023-06-26T02:44:56;95407.22;;;14.75;83.97
72409;BME280;60402;48.082;11.628;2023-06-26T02:47:42;95408.16;;;14.72;84.57
72409;BME280;60402;48.082;11.628;2023-06-26T02:50:28;95401.53;;;14.66;84.50
72409;BME280;60402;48.082;11.628;2023-06-26T02:53:13;95406.13;;;14.54;84.79
72409;BME280;60402;48.082;11.628;2023-06-26T02:55:59;95417.31;;;14.57;84.86
72409;BME280;60402;48.082;11.628;2023-06-26T02:58:45;95419.25;;;14.61;85.20
72409;BME280;60402;48.082;11.628;2023-06-26T03:01:30;95397.06;;;14.37;85.85
72409;BME280;60402;48.082;11.628;2023-06-26T03:04:16;95421.44;;;14.66;84.64
72409;BME280;60402;48.082;11.628;2023-06-26T03:07:03;95419.06;;;14.55;85.16
72409;BME280;60402;48.082;11.628;2023-06-26T03:09:49;95403.91;;;14.58;85.10
72409;BME280;60402;48.082;11.628;2023-06-26T03:12:35;95399.63;;;14.53;84.74
72409;BME280;60402;48.082;11.628;2023-06-26T03:15:20;95397.91;;;14.65;83.50
72409;BME280;60402;48.082;11.628;2023-06-26T03:18:06;95412.28;;;14.80;83.80
72409;BME280;60402;48.082;11.628;2023-06-26T03:20:52;95402.66;;;14.77;83.82
72409;BME280;60402;48.082;11.628;2023-06-26T03:23:41;95414.34;;;14.79;83.83
72409;BME280;60402;48.082;11.628;2023-06-26T03:26:27;95392.06;;;14.69;84.01
72409;BME280;60402;48.082;11.628;2023-06-26T03:29:13;95394.75;;;14.72;84.31
72409;BME280;60402;48.082;11.628;2023-06-26T03:31:59;95413.06;;;14.80;84.05
72409;BME280;60402;48.082;11.628;2023-06-26T03:34:45;95400.75;;;14.74;84.29
72409;BME280;60402;48.082;11.628;2023-06-26T03:37:31;95405.50;;;14.68;84.75
72409;BME280;60402;48.082;11.628;2023-06-26T03:40:17;95413.06;;;14.71;84.39
72409;BME280;60402;48.082;11.628;2023-06-26T03:43:02;95417.03;;;14.74;84.26
72409;BME280;60402;48.082;11.628;2023-06-26T03:45:48;95394.28;;;14.55;84.94
72409;BME280;60402;48.082;11.628;2023-06-26T03:48:34;95412.91;;;14.66;84.65
72409;BME280;60402;48.082;11.628;2023-06-26T03:51:19;95398.22;;;14.58;84.94
72409;BME280;60402;48.082;11.628;2023-06-26T03:54:05;95416.06;;;14.77;84.38
72409;BME280;60402;48.082;11.628;2023-06-26T03:56:51;95395.69;;;14.60;84.33
72409;BME280;60402;48.082;11.628;2023-06-26T03:59:37;95394.75;;;14.54;84.76
72409;BME280;60402;48.082;11.628;2023-06-26T04:02:22;95408.94;;;14.63;84.79
72409;BME280;60402;48.082;11.628;2023-06-26T04:05:08;95399.50;;;14.75;84.19
72409;BME280;60402;48.082;11.628;2023-06-26T04:07:54;95416.72;;;14.90;84.14
72409;BME280;60402;48.082;11.628;2023-06-26T04:10:39;95378.00;;;14.65;83.93
72409;BME280;60402;48.082;11.628;2023-06-26T04:13:25;95410.88;;;14.94;83.90
72409;BME280;60402;48.082;11.628;2023-06-26T04:16:11;95408.78;;;15.13;83.20
72409;BME280;60402;48.082;11.628;2023-06-26T04:18:57;95410.84;;;15.21;83.26
72409;BME280;60402;48.082;11.628;2023-06-26T04:21:42;95412.56;;;15.19;83.06
72409;BME280;60402;48.082;11.628;2023-06-26T04:24:28;95392.31;;;15.26;82.25
72409;BME280;60402;48.082;11.628;2023-06-26T04:27:14;95391.34;;;15.29;82.26
72409;BME280;60402;48.082;11.628;2023-06-26T04:29:59;95405.53;;;15.47;81.68
72409;BME280;60402;48.082;11.628;2023-06-26T04:32:45;95409.31;;;15.72;80.84
72409;BME280;60402;48.082;11.628;2023-06-26T04:35:31;95413.22;;;15.83;80.93
72409;BME280;60402;48.082;11.628;2023-06-26T04:38:16;95406.56;;;15.87;80.40
72409;BME280;60402;48.082;11.628;2023-06-26T04:41:02;95418.06;;;16.01;80.21
72409;BME280;60402;48.082;11.628;2023-06-26T04:43:48;95413.09;;;16.11;80.05
72409;BME280;60402;48.082;11.628;2023-06-26T04:46:34;95424.41;;;16.29;79.36
72409;BME280;60402;48.082;11.628;2023-06-26T04:49:19;95425.50;;;16.56;78.46
72409;BME280;60402;48.082;11.628;2023-06-26T04:52:05;95410.97;;;16.69;77.97
72409;BME280;60402;48.082;11.628;2023-06-26T04:54:51;95412.34;;;16.82;77.43
72409;BME280;60402;48.082;11.628;2023-06-26T04:57:37;95411.72;;;17.17;76.08
72409;BME280;60402;48.082;11.628;2023-06-26T05:00:23;95411.66;;;17.41;75.29
72409;BME280;60402;48.082;11.628;2023-06-26T05:03:11;95398.94;;;17.72;73.61
72409;BME280;60402;48.082;11.628;2023-06-26T05:05:57;95409.50;;;17.95;72.72
72409;BME280;60402;48.082;11.628;2023-06-26T05:08:43;95382.19;;;18.29;71.42
72409;BME280;60402;48.082;11.628;2023-06-26T05:11:28;95419.38;;;18.85;69.62
72409;BME280;60402;48.082;11.628;2023-06-26T05:14:14;95409.34;;;19.15;68.09
72409;BME280;60402;48.082;11.628;2023-06-26T05:17:00;95396.25;;;19.09;67.49
72409;BME280;60402;48.082;11.628;2023-06-26T05:19:46;95420.09;;;19.47;66.32
72409;BME280;60402;48.082;11.628;2023-06-26T05:22:33;95403.06;;;19.37;66.38
72409;BME280;60402;48.082;11.628;2023-06-26T05:25:19;95425.34;;;19.48;65.93
72409;BME280;60402;48.082;11.628;2023-06-26T05:28:08;95417.22;;;19.47;66.81
72409;BME280;60402;48.082;11.628;2023-06-26T05:30:56;95417.97;;;19.62;66.35
72409;BME280;60402;48.082;11.628;2023-06-26T05:33:43;95412.75;;;19.66;66.34
72409;BME280;60402;48.082;11.628;2023-06-26T05:36:29;95418.88;;;19.07;70.57
72409;BME280;60402;48.082;11.628;2023-06-26T05:39:18;95402.63;;;18.98;70.93
72409;BME280;60402;48.082;11.628;2023-06-26T05:42:04;95420.53;;;18.93;72.43
72409;BME280;60402;48.082;11.628;2023-06-26T05:44:50;95412.78;;;19.20;71.62
72409;BME280;60402;48.082;11.628;2023-06-26T05:47:36;95397.03;;;19.30;71.12
72409;BME280;60402;48.082;11.628;2023-06-26T05:50:22;95413.72;;;19.57;70.16
72409;BME280;60402;48.082;11.628;2023-06-26T05:53:08;95412.41;;;19.84;69.33
72409;BME280;60402;48.082;11.628;2023-06-26T05:55:54;95409.50;;;20.10;67.06
72409;BME280;60402;48.082;11.628;2023-06-26T05:58:40;95425.56;;;20.28;64.92
72409;BME280;60402;48.082;11.628;2023-06-26T06:01:27;95409.28;;;20.51;64.24
72409;BME280;60402;48.082;11.628;2023-06-26T06:04:13;95413.44;;;20.93;63.82
72409;BME280;60402;48.082;11.628;2023-06-26T06:06:59;95393.94;;;21.19;60.46
72409;BME280;60402;48.082;11.628;2023-06-26T06:09:44;95405.31;;;21.74;59.05
72409;BME280;60402;48.082;11.628;2023-06-26T06:12:30;95406.66;;;22.06;57.16
72409;BME280;60402;48.082;11.628;2023-06-26T06:15:16;95388.13;;;22.13;56.57
72409;BME280;60402;48.082;11.628;2023-06-26T06:18:01;95410.06;;;22.61;54.78
72409;BME280;60402;48.082;11.628;2023-06-26T06:20:47;95399.25;;;22.84;54.01
72409;BME280;60402;48.082;11.628;2023-06-26T06:23:33;95386.88;;;23.11;52.69
72409;BME280;60402;48.082;11.628;2023-06-26T06:26:19;95401.41;;;23.41;52.26
72409;BME280;60402;48.082;11.628;2023-06-26T06:29:04;95405.03;;;23.47;52.24
72409;BME280;60402;48.082;11.628;2023-06-26T06:31:51;95415.97;;;23.60;51.54
72409;BME280;60402;48.082;11.628;2023-06-26T06:34:37;95411.78;;;24.03;51.03
72409;BME280;60402;48.082;11.628;2023-06-26T06:37:22;95411.34;;;24.59;49.21
72409;BME280;60402;48.082;11.628;2023-06-26T06:40:12;95412.66;;;25.31;46.79
72409;BME280;60402;48.082;11.628;2023-06-26T06:42:57;95409.09;;;26.00;44.52
72409;BME280;60402;48.082;11.628;2023-06-26T06:45:44;95414.72;;;26.12;42.57
72409;BME280;60402;48.082;11.628;2023-06-26T06:48:31;95415.88;;;26.22;41.51
72409;BME280;60402;48.082;11.628;2023-06-26T06:51:16;95421.47;;;26.33;41.81
72409;BME280;60402;48.082;11.628;2023-06-26T06:54:02;95421.88;;;26.43;41.76
72409;BME280;60402;48.082;11.628;2023-06-26T06:56:48;95409.31;;;26.21;41.92
72409;BME280;60402;48.082;11.628;2023-06-26T06:59:33;95416.91;;;26.57;42.31
72409;BME280;60402;48.082;11.628;2023-06-26T07:02:19;95410.88;;;27.26;40.65
72409;BME280;60402;48.082;11.628;2023-06-26T07:05:06;95413.63;;;28.19;39.16
72409;BME280;60402;48.082;11.628;2023-06-26T07:07:51;95419.09;;;29.35;36.78
72409;BME280;60402;48.082;11.628;2023-06-26T07:10:37;95416.75;;;30.80;34.53
72409;BME280;60402;48.082;11.628;2023-06-26T07:13:23;95420.44;;;32.46;31.48
72409;BME280;60402;48.082;11.628;2023-06-26T07:16:09;95420.72;;;34.44;29.29
72409;BME280;60402;48.082;11.628;2023-06-26T07:18:56;95400.84;;;35.82;27.48
72409;BME280;60402;48.082;11.628;2023-06-26T07:21:42;95407.38;;;36.99;25.43
72409;BME280;60402;48.082;11.628;2023-06-26T07:24:29;95421.66;;;37.86;23.90
72409;BME280;60402;48.082;11.628;2023-06-26T07:27:15;95418.69;;;37.65;23.40
72409;BME280;60402;48.082;11.628;2023-06-26T07:30:02;95413.13;;;37.59;24.46
72409;BME280;60402;48.082;11.628;2023-06-26T07:32:47;95396.56;;;38.40;22.74
72409;BME280;60402;48.082;11.628;2023-06-26T07:35:33;95423.28;;;39.10;22.39
72409;BME280;60402;48.082;11.628;2023-06-26T07:38:19;95419.38;;;38.39;22.83
72409;BME280;60402;48.082;11.628;2023-06-26T07:41:04;95418.13;;;37.78;23.66
72409;BME280;60402;48.082;11.628;2023-06-26T07:43:50;95423.75;;;38.38;23.62
72409;BME280;60402;48.082;11.628;2023-06-26T07:46:36;95418.66;;;38.29;23.71
72409;BME280;60402;48.082;11.628;2023-06-26T07:49:21;95424.28;;;38.79;22.90
72409;BME280;60402;48.082;11.628;2023-06-26T07:52:07;95417.91;;;38.61;23.27
72409;BME280;60402;48.082;11.628;2023-06-26T07:54:56;95414.81;;;37.62;24.08
72409;BME280;60402;48.082;11.628;2023-06-26T07:57:42;95412.94;;;38.09;23.69
72409;BME280;60402;48.082;11.628;2023-06-26T08:00:27;95411.59;;;37.79;24.38
72409;BME280;60402;48.082;11.628;2023-06-26T08:03:13;95399.72;;;38.10;23.54
72409;BME280;60402;48.082;11.628;2023-06-26T08:05:59;95412.41;;;37.49;24.28
72409;BME280;60402;48.082;11.628;2023-06-26T08:08:45;95424.81;;;37.78;24.63
72409;BME280;60402;48.082;11.628;2023-06-26T08:11:30;95412.25;;;38.54;22.97
72409;BME280;60402;48.082;11.628;2023-06-26T08:14:16;95421.47;;;37.94;23.76
72409;BME280;60402;48.082;11.628;2023-06-26T08:17:02;95412.47;;;36.38;25.49
72409;BME280;60402;48.082;11.628;2023-06-26T08:19:48;95407.31;;;35.80;26.42
72409;BME280;60402;48.082;11.628;2023-06-26T08:22:34;95400.53;;;35.88;26.26
72409;BME280;60402;48.082;11.628;2023-06-26T08:25:20;95415.53;;;35.53;27.25
72409;BME280;60402;48.082;11.628;2023-06-26T08:28:06;95417.56;;;34.87;28.01
72409;BME280;60402;48.082;11.628;2023-06-26T08:30:51;95401.53;;;34.61;28.22
72409;BME280;60402;48.082;11.628;2023-06-26T08:33:38;95417.44;;;34.40;28.78
72409;BME280;60402;48.082;11.628;2023-06-26T08:36:24;95390.41;;;34.15;28.70
72409;BME280;60402;48.082;11.628;2023-06-26T08:39:09;95398.09;;;34.54;28.07
72409;BME280;60402;48.082;11.628;2023-06-26T08:41:55;95412.00;;;34.54;28.50
72409;BME280;60402;48.082;11.628;2023-06-26T08:44:41;95400.69;;;33.89;29.27
72409;BME280;60402;48.082;11.628;2023-06-26T08:47:26;95403.44;;;34.04;29.17
72409;BME280;60402;48.082;11.628;2023-06-26T08:50:13;95395.34;;;33.95;29.61
72409;BME280;60402;48.082;11.628;2023-06-26T08:53:04;95398.59;;;33.81;29.37
72409;BME280;60402;48.082;11.628;2023-06-26T08:55:57;95409.16;;;34.02;30.00
72409;BME280;60402;48.082;11.628;2023-06-26T08:58:44;95383.44;;;33.41;29.26
72409;BME280;60402;48.082;11.628;2023-06-26T09:01:31;95403.34;;;33.77;29.49
72409;BME280;60402;48.082;11.628;2023-06-26T09:04:17;95396.25;;;33.45;28.72
72409;BME280;60402;48.082;11.628;2023-06-26T09:07:02;95391.63;;;33.00;29.78
72409;BME280;60402;48.082;11.628;2023-06-26T09:09:48;95377.34;;;33.21;29.81
72409;BME280;60402;48.082;11.628;2023-06-26T09:12:34;95371.91;;;32.75;29.54
72409;BME280;60402;48.082;11.628;2023-06-26T09:15:20;95372.72;;;32.68;29.89
72409;BME280;60402;48.082;11.628;2023-06-26T09:18:06;95376.91;;;32.58;30.16
72409;BME280;60402;48.082;11.628;2023-06-26T09:20:52;95366.50;;;32.89;30.06
72409;BME280;60402;48.082;11.628;2023-06-26T09:23:39;95362.34;;;32.75;29.34
72409;BME280;60402;48.082;11.628;2023-06-26T09:26:25;95374.31;;;32.94;29.61
72409;BME280;60402;48.082;11.628;2023-06-26T09:29:11;95357.47;;;32.70;29.44
72409;BME280;60402;48.082;11.628;2023-06-26T09:31:59;95371.50;;;32.46;29.64
72409;BME280;60402;48.082;11.628;2023-06-26T09:34:48;95356.53;;;32.42;30.53
72409;BME280;60402;48.082;11.628;2023-06-26T09:37:37;95372.81;;;32.78;30.13
72409;BME280;60402;48.082;11.628;2023-06-26T09:40:23;95365.72;;;32.31;31.02
72409;BME280;60402;48.082;11.628;2023-06-26T09:43:09;95382.06;;;32.42;31.04
72409;BME280;60402;48.082;11.628;2023-06-26T09:45:58;95356.94;;;32.39;31.63
72409;BME280;60402;48.082;11.628;2023-06-26T09:48:45;95356.53;;;32.67;30.34
72409;BME280;60402;48.082;11.628;2023-06-26T09:51:35;95347.19;;;32.36;29.63
72409;BME280;60402;48.082;11.628;2023-06-26T09:54:21;95347.28;;;32.21;30.86
72409;BME280;60402;48.082;11.628;2023-06-26T09:57:08;95357.72;;;32.31;31.07
72409;BME280;60402;48.082;11.628;2023-06-26T09:59:54;95347.69;;;32.17;30.57
72409;BME280;60402;48.082;11.628;2023-06-26T10:02:40;95340.78;;;31.97;30.56
72409;BME280;60402;48.082;11.628;2023-06-26T10:05:26;95334.66;;;31.70;30.43
72409;BME280;60402;48.082;11.628;2023-06-26T10:08:13;95353.78;;;31.64;30.70
72409;BME280;60402;48.082;11.628;2023-06-26T10:10:59;95348.78;;;31.97;30.21
72409;BME280;60402;48.082;11.628;2023-06-26T10:13:47;95338.78;;;32.08;29.66
72409;BME280;60402;48.082;11.628;2023-06-26T10:16:35;95328.34;;;31.89;30.18
72409;BME280;60402;48.082;11.628;2023-06-26T10:19:23;95330.97;;;31.70;29.40
72409;BME280;60402;48.082;11.628;2023-06-26T10:22:12;95341.06;;;31.84;29.29
72409;BME280;60402;48.082;11.628;2023-06-26T10:25:00;95336.72;;;31.93;28.53
72409;BME280;60402;48.082;11.628;2023-06-26T10:27:55;95324.81;;;31.98;28.07
72409;BME280;60402;48.082;11.628;2023-06-26T10:30:43;95330.06;;;32.00;29.35
72409;BME280;60402;48.082;11.628;2023-06-26T10:33:30;95321.81;;;32.14;29.69
72409;BME280;60402;48.082;11.628;2023-06-26T10:36:18;95325.53;;;32.06;28.55
72409;BME280;60402;48.082;11.628;2023-06-26T10:39:05;95326.03;;;32.20;28.66
72409;BME280;60402;48.082;11.628;2023-06-26T10:41:54;95320.84;;;32.36;28.54
72409;BME280;60402;48.082;11.628;2023-06-26T10:44:44;95325.72;;;32.41;28.89
72409;BME280;60402;48.082;11.628;2023-06-26T10:47:30;95323.25;;;32.30;28.56
72409;BME280;60402;48.082;11.628;2023-06-26T10:50:27;95331.78;;;32.03;28.93
72409;BME280;60402;48.082;11.628;2023-06-26T10:53:15;95326.50;;;31.61;29.62
72409;BME280;60402;48.082;11.628;2023-06-26T10:56:05;95306.13;;;31.46;29.11
72409;BME280;60402;48.082;11.628;2023-06-26T10:58:50;95324.69;;;31.25;29.30
72409;BME280;60402;48.082;11.628;2023-06-26T11:01:40;95325.53;;;30.80;29.42
72409;BME280;60402;48.082;11.628;2023-06-26T11:07:24;95325.66;;;31.36;30.23
72409;BME280;60402;48.082;11.628;2023-06-26T11:10:10;95306.13;;;31.46;29.23
72409;BME280;60402;48.082;11.628;2023-06-26T11:12:57;95307.13;;;31.41;28.88
72409;BME280;60402;48.082;11.628;2023-06-26T11:15:43;95304.59;;;31.45;29.58
72409;BME280;60402;48.082;11.628;2023-06-26T11:18:31;95301.44;;;31.50;29.63
72409;BME280;60402;48.082;11.628;2023-06-26T11:21:20;95306.69;;;31.52;30.05
72409;BME280;60402;48.082;11.628;2023-06-26T11:24:07;95288.69;;;31.71;30.22
72409;BME280;60402;48.082;11.628;2023-06-26T11:26:53;95309.63;;;32.00;29.30
72409;BME280;60402;48.082;11.628;2023-06-26T11:29:50;95299.97;;;31.74;29.50
72409;BME280;60402;48.082;11.628;2023-06-26T11:32:37;95325.19;;;32.02;30.51
72409;BME280;60402;48.082;11.628;2023-06-26T11:35:23;95302.69;;;32.13;29.81
72409;BME280;60402;48.082;11.628;2023-06-26T11:38:15;95295.53;;;32.06;29.00
72409;BME280;60402;48.082;11.628;2023-06-26T11:41:01;95301.63;;;32.00;29.40
72409;BME280;60402;48.082;11.628;2023-06-26T11:43:47;95299.25;;;32.06;29.20
72409;BME280;60402;48.082;11.628;2023-06-26T11:46:34;95312.31;;;32.05;29.41
72409;BME280;60402;48.082;11.628;2023-06-26T11:49:21;95317.81;;;31.94;30.31
72409;BME280;60402;48.082;11.628;2023-06-26T11:52:08;95321.44;;;32.10;29.27
72409;BME280;60402;48.082;11.628;2023-06-26T11:54:57;95299.09;;;31.97;29.69
72409;BME280;60402;48.082;11.628;2023-06-26T11:57:48;95304.28;;;32.14;29.87
72409;BME280;60402;48.082;11.628;2023-06-26T12:00:33;95289.66;;;32.14;29.30
72409;BME280;60402;48.082;11.628;2023-06-26T12:03:19;95300.72;;;32.48;28.69
72409;BME280;60402;48.082;11.628;2023-06-26T12:06:05;95282.16;;;32.28;28.96
72409;BME280;60402;48.082;11.628;2023-06-26T12:08:52;95294.28;;;32.17;28.89
72409;BME280;60402;48.082;11.628;2023-06-26T12:11:40;95294.72;;;31.73;30.41
72409;BME280;60402;48.082;11.628;2023-06-26T12:14:27;95286.13;;;31.75;30.47
72409;BME280;60402;48.082;11.628;2023-06-26T12:17:16;95313.88;;;31.99;30.87
72409;BME280;60402;48.082;11.628;2023-06-26T12:20:02;95308.28;;;31.93;30.83
72409;BME280;60402;48.082;11.628;2023-06-26T12:22:50;95303.16;;;32.01;30.79
72409;BME280;60402;48.082;11.628;2023-06-26T12:25:36;95298.44;;;32.14;30.64
72409;BME280;60402;48.082;11.628;2023-06-26T12:28:22;95304.31;;;32.06;30.36
72409;BME280;60402;48.082;11.628;2023-06-26T12:31:20;95295.66;;;31.91;29.67
72409;BME280;60402;48.082;11.628;2023-06-26T12:34:13;95303.72;;;31.67;30.70
72409;BME280;60402;48.082;11.628;2023-06-26T12:37:04;95288.44;;;31.92;30.40
72409;BME280;60402;48.082;11.628;2023-06-26T12:39:55;95293.44;;;31.59;30.58
72409;BME280;60402;48.082;11.628;2023-06-26T12:42:42;95272.38;;;31.68;30.34
72409;BME280;60402;48.082;11.628;2023-06-26T12:45:37;95291.44;;;32.09;29.27
72409;BME280;60402;48.082;11.628;2023-06-26T12:48:43;95261.06;;;31.72;29.98
72409;BME280;60402;48.082;11.628;2023-06-26T12:51:29;95273.28;;;31.78;31.21
72409;BME280;60402;48.082;11.628;2023-06-26T12:54:15;95285.22;;;32.05;29.85
72409;BME280;60402;48.082;11.628;2023-06-26T12:57:00;95274.97;;;31.96;29.69
72409;BME280;60402;48.082;11.628;2023-06-26T12:59:46;95277.28;;;31.98;30.21
72409;BME280;60402;48.082;11.628;2023-06-26T13:02:32;95259.06;;;31.74;30.08
72409;BME280;60402;48.082;11.628;2023-06-26T13:05:18;95269.09;;;31.96;29.99
72409;BME280;60402;48.082;11.628;2023-06-26T13:08:04;95275.22;;;31.75;30.04
72409;BME280;60402;48.082;11.628;2023-06-26T13:10:50;95263.22;;;31.64;30.23
72409;BME280;60402;48.082;11.628;2023-06-26T13:13:35;95260.81;;;31.77;29.86
72409;BME280;60402;48.082;11.628;2023-06-26T13:16:21;95261.16;;;31.89;29.81
72409;BME280;60402;48.082;11.628;2023-06-26T13:19:07;95256.94;;;31.75;29.73
72409;BME280;60402;48.082;11.628;2023-06-26T13:21:53;95249.88;;;31.53;29.58
72409;BME280;60402;48.082;11.628;2023-06-26T13:24:39;95231.47;;;31.68;31.67
72409;BME280;60402;48.082;11.628;2023-06-26T13:27:25;95247.44;;;31.19;30.48
72409;BME280;60402;48.082;11.628;2023-06-26T13:30:10;95243.16;;;31.20;31.33
72409;BME280;60402;48.082;11.628;2023-06-26T13:32:56;95233.78;;;31.37;31.64
72409;BME280;60402;48.082;11.628;2023-06-26T13:35:42;95230.44;;;31.40;31.41
72409;BME280;60402;48.082;11.628;2023-06-26T13:38:27;95233.78;;;31.37;31.65
72409;BME280;60402;48.082;11.628;2023-06-26T13:41:13;95225.66;;;31.20;32.30
72409;BME280;60402;48.082;11.628;2023-06-26T13:43:59;95219.56;;;31.33;32.11
72409;BME280;60402;48.082;11.628;2023-06-26T13:46:45;95240.41;;;31.22;31.96
72409;BME280;60402;48.082;11.628;2023-06-26T13:49:30;95232.34;;;30.90;32.39
72409;BME280;60402;48.082;11.628;2023-06-26T13:52:16;95221.94;;;31.19;32.91
72409;BME280;60402;48.082;11.628;2023-06-26T13:55:02;95217.59;;;31.43;31.63
72409;BME280;60402;48.082;11.628;2023-06-26T13:57:51;95223.47;;;31.68;31.62
72409;BME280;60402;48.082;11.628;2023-06-26T14:00:37;95236.88;;;31.39;31.39
72409;BME280;60402;48.082;11.628;2023-06-26T14:03:22;95224.00;;;31.42;31.69
72409;BME280;60402;48.082;11.628;2023-06-26T14:06:08;95242.38;;;31.19;32.15
72409;BME280;60402;48.082;11.628;2023-06-26T14:08:53;95227.44;;;31.08;31.80
72409;BME280;60402;48.082;11.628;2023-06-26T14:11:39;95224.19;;;30.88;32.76
72409;BME280;60402;48.082;11.628;2023-06-26T14:14:25;95218.69;;;31.08;32.68
72409;BME280;60402;48.082;11.628;2023-06-26T14:17:11;95232.13;;;31.11;32.49
72409;BME280;60402;48.082;11.628;2023-06-26T14:20:01;95233.69;;;31.04;33.39
72409;BME280;60402;48.082;11.628;2023-06-26T14:22:48;95230.81;;;30.96;33.29
72409;BME280;60402;48.082;11.628;2023-06-26T14:25:34;95231.38;;;30.95;33.53
72409;BME280;60402;48.082;11.628;2023-06-26T14:28:20;95221.38;;;31.13;32.69
72409;BME280;60402;48.082;11.628;2023-06-26T14:31:05;95205.78;;;31.18;32.34
72409;BME280;60402;48.082;11.628;2023-06-26T14:33:51;95223.00;;;30.99;32.69
72409;BME280;60402;48.082;11.628;2023-06-26T14:36:37;95219.44;;;31.16;32.97